Terminal Aerodrome Forecast
Issued by NWS

Home | Current Version | Previous Version | Text Only | Print | Product List | Glossary On
Versions: 1 2 3 4 5 6 7 8 9 10 11 12 13 14 15 16 17 18 19 20 21 22 23 24
000
FTUS41 KOKX 301700
TAFSWF
TAF
KSWF 301740Z 3018/0124 12011KT P6SM SCT015 BKN030
     FM302000 11007KT P6SM SCT020 BKN035
     FM010300 08006KT P6SM FEW010 BKN020
     FM010800 06006KT 3SM BR SCT006 BKN015
     FM011400 06008KT 6SM BR OVC015
      AMD NOT SKED=

USA.gov is the U.S. government's official web portal to all federal, state and local government web resources and services.